createdAt,value
2016-07-15T00:00:52.679Z,1010.71
2016-07-15T00:01:52.675Z,1010.71
2016-07-15T00:02:52.673Z,1010.7
2016-07-15T00:03:52.673Z,1010.74
2016-07-15T00:04:52.666Z,1010.74
2016-07-15T00:05:52.663Z,1010.74
2016-07-15T00:06:52.660Z,1010.77
2016-07-15T00:07:52.658Z,1010.78
2016-07-15T00:08:52.654Z,1010.78
2016-07-15T00:09:52.653Z,1010.74
2016-07-15T00:10:52.649Z,1010.78
2016-07-15T00:11:52.646Z,1010.79
2016-07-15T00:12:52.643Z,1010.81
2016-07-15T00:13:52.643Z,1010.86
2016-07-15T00:14:52.636Z,1010.86
2016-07-15T00:15:52.635Z,1010.85
2016-07-15T00:16:52.630Z,1010.83
2016-07-15T00:17:53.129Z,1010.82
2016-07-15T00:18:52.776Z,1010.81
2016-07-15T00:19:52.620Z,1010.82
2016-07-15T00:20:52.627Z,1010.8
2016-07-15T00:21:52.616Z,1010.84
2016-07-15T00:22:52.610Z,1010.88
2016-07-15T00:23:52.610Z,1010.89
2016-07-15T00:24:52.606Z,1010.92
2016-07-15T00:25:52.604Z,1010.87
2016-07-15T00:26:53.798Z,1010.89
2016-07-15T00:27:54.615Z,1010.93
2016-07-15T00:28:52.592Z,1010.99
2016-07-15T00:29:54.317Z,1010.89
2016-07-15T00:30:54.332Z,1010.92
2016-07-15T00:31:52.584Z,1010.93
2016-07-15T00:32:53.261Z,1010.91
2016-07-15T00:33:52.577Z,1010.91
2016-07-15T00:34:52.575Z,1010.96
2016-07-15T00:35:52.572Z,1010.98
2016-07-15T00:36:52.569Z,1010.96
2016-07-15T00:37:53.774Z,1010.99
2016-07-15T00:38:52.560Z,1010.96
2016-07-15T00:39:52.558Z,1010.97
2016-07-15T00:40:52.555Z,1011.01
2016-07-15T00:41:52.977Z,1010.98
2016-07-15T00:42:52.548Z,1010.94
2016-07-15T00:43:52.545Z,1010.95
2016-07-15T00:44:52.542Z,1010.95
2016-07-15T00:45:52.538Z,1010.92
2016-07-15T00:46:52.534Z,1010.97
2016-07-15T00:47:52.532Z,1010.95
2016-07-15T00:48:52.529Z,1010.99
2016-07-15T00:49:52.525Z,1010.95
2016-07-15T00:50:52.522Z,1010.93
2016-07-15T00:51:52.520Z,1010.94
2016-07-15T00:52:52.515Z,1010.95
2016-07-15T00:53:52.515Z,1010.95
2016-07-15T00:54:52.510Z,1010.97
2016-07-15T00:55:52.506Z,1010.97
2016-07-15T00:56:52.503Z,1010.95
2016-07-15T00:57:52.502Z,1010.97
2016-07-15T00:58:52.499Z,1010.92
2016-07-15T00:59:52.493Z,1010.93
2016-07-15T01:00:52.496Z,1010.92
2016-07-15T01:01:52.490Z,1010.92
2016-07-15T01:02:52.487Z,1010.96
2016-07-15T01:03:52.480Z,1010.93
2016-07-15T01:04:52.480Z,1010.92
2016-07-15T01:05:52.476Z,1011.03
2016-07-15T01:06:52.472Z,1011
2016-07-15T01:07:52.468Z,1010.99
2016-07-15T01:08:52.473Z,1011.03
2016-07-15T01:09:52.465Z,1010.98
2016-07-15T01:10:52.460Z,1010.94
2016-07-15T01:11:52.458Z,1010.99
2016-07-15T01:12:52.453Z,1010.97
2016-07-15T01:13:52.450Z,1010.95
2016-07-15T01:14:52.446Z,1010.96
2016-07-15T01:15:52.442Z,1010.96
2016-07-15T01:16:52.440Z,1010.92
2016-07-15T01:17:52.435Z,1010.95
2016-07-15T01:18:52.434Z,1010.92
2016-07-15T01:19:52.431Z,1010.91
2016-07-15T01:20:52.429Z,1010.95
2016-07-15T01:21:52.425Z,1011
2016-07-15T01:22:52.423Z,1010.91
2016-07-15T01:23:52.420Z,1010.96
2016-07-15T01:24:52.416Z,1010.99
2016-07-15T01:25:52.414Z,1010.94
2016-07-15T01:26:52.410Z,1010.94
2016-07-15T01:27:52.407Z,1010.91
2016-07-15T01:28:52.404Z,1010.96
2016-07-15T01:29:52.401Z,1010.94
2016-07-15T01:30:52.397Z,1011.01
2016-07-15T01:31:52.396Z,1010.99
2016-07-15T01:32:52.390Z,1010.99
2016-07-15T01:33:52.387Z,1010.96
2016-07-15T01:34:52.386Z,1010.97
2016-07-15T01:35:52.381Z,1011.01
2016-07-15T01:36:52.479Z,1010.98
2016-07-15T01:37:52.376Z,1010.97
2016-07-15T01:38:52.374Z,1010.93
2016-07-15T01:39:52.368Z,1010.95
2016-07-15T01:40:52.366Z,1010.96
2016-07-15T01:41:52.364Z,1010.93
2016-07-15T01:42:52.359Z,1010.95
2016-07-15T01:43:52.356Z,1010.97
2016-07-15T01:44:52.753Z,1010.9
2016-07-15T01:46:52.346Z,1010.95
2016-07-15T01:47:52.344Z,1010.92
2016-07-15T01:48:52.341Z,1010.94
2016-07-15T01:49:52.621Z,1010.95
2016-07-15T01:50:52.335Z,1010.94
2016-07-15T01:51:52.632Z,1010.99
2016-07-15T01:52:52.326Z,1010.96
2016-07-15T01:53:52.326Z,1010.89
2016-07-15T01:54:52.321Z,1010.9
2016-07-15T01:55:52.928Z,1010.95
2016-07-15T01:56:52.415Z,1010.92
2016-07-15T01:57:53.624Z,1010.94
2016-07-15T01:58:52.310Z,1010.92
2016-07-15T01:59:52.306Z,1010.91
2016-07-15T02:00:52.491Z,1010.87
2016-07-15T02:01:52.299Z,1010.91
2016-07-15T02:02:52.297Z,1010.92
2016-07-15T02:03:52.294Z,1010.94
2016-07-15T02:04:52.291Z,1010.92
2016-07-15T02:05:52.288Z,1010.95
2016-07-15T02:06:52.284Z,1010.91
2016-07-15T02:07:52.287Z,1010.9
2016-07-15T02:08:52.277Z,1010.94
2016-07-15T02:09:52.274Z,1010.92
2016-07-15T02:10:52.272Z,1010.9
2016-07-15T02:11:52.267Z,1010.97
2016-07-15T02:12:52.265Z,1010.94
2016-07-15T02:13:52.261Z,1010.98
2016-07-15T02:14:52.258Z,1010.93
2016-07-15T02:15:52.255Z,1010.97
2016-07-15T02:16:52.251Z,1010.9
2016-07-15T02:17:52.247Z,1010.99
2016-07-15T02:18:52.244Z,1010.99
2016-07-15T02:19:52.241Z,1010.95
2016-07-15T02:20:52.239Z,1010.97
2016-07-15T02:21:52.235Z,1010.92
2016-07-15T02:22:52.232Z,1010.94
2016-07-15T02:23:52.228Z,1010.91
2016-07-15T02:24:52.224Z,1010.93
2016-07-15T02:25:52.222Z,1010.96
2016-07-15T02:26:52.219Z,1010.98
2016-07-15T02:27:52.213Z,1010.95
2016-07-15T02:28:52.210Z,1010.97
2016-07-15T02:29:52.206Z,1010.97
2016-07-15T02:30:52.205Z,1010.99
2016-07-15T02:31:52.199Z,1011
2016-07-15T02:32:52.199Z,1010.97
2016-07-15T02:33:52.196Z,1010.91
2016-07-15T02:34:52.189Z,1011.01
2016-07-15T02:35:52.187Z,1010.99
2016-07-15T02:36:52.185Z,1010.99
2016-07-15T02:37:52.180Z,1010.92
2016-07-15T02:38:52.178Z,1010.98
2016-07-15T02:39:52.175Z,1010.94
2016-07-15T02:40:52.171Z,1010.96
2016-07-15T02:41:52.165Z,1011
2016-07-15T02:42:52.165Z,1011.02
2016-07-15T02:43:52.159Z,1010.97
2016-07-15T02:44:52.156Z,1011.02
2016-07-15T02:45:52.155Z,1011.06
2016-07-15T02:46:52.151Z,1011.03
2016-07-15T02:47:52.148Z,1011.02
2016-07-15T02:48:52.143Z,1011.06
2016-07-15T02:49:52.139Z,1011.06
2016-07-15T02:50:52.136Z,1011.07
2016-07-15T02:51:52.133Z,1011.13
2016-07-15T02:52:52.129Z,1011.11
2016-07-15T02:53:52.126Z,1011.08
2016-07-15T02:54:52.124Z,1011.11
2016-07-15T02:55:52.122Z,1011.15
2016-07-15T02:56:52.116Z,1011.11
2016-07-15T02:57:52.121Z,1011.14
2016-07-15T02:58:52.111Z,1011.16
2016-07-15T02:59:52.107Z,1011.16
2016-07-15T03:00:52.104Z,1011.12
2016-07-15T03:01:52.102Z,1011.2
2016-07-15T03:02:52.100Z,1011.18
2016-07-15T03:03:53.044Z,1011.2
2016-07-15T03:04:52.091Z,1011.21
2016-07-15T03:05:52.089Z,1011.24
2016-07-15T03:06:52.085Z,1011.29
2016-07-15T03:07:52.731Z,1011.27
2016-07-15T03:08:52.077Z,1011.28
2016-07-15T03:09:52.075Z,1011.3
2016-07-15T03:10:52.072Z,1011.33
2016-07-15T03:11:52.068Z,1011.39
2016-07-15T03:12:52.067Z,1011.4
2016-07-15T03:13:52.062Z,1011.42
2016-07-15T03:14:52.060Z,1011.43
2016-07-15T03:15:52.055Z,1011.38
2016-07-15T03:16:53.107Z,1011.45
2016-07-15T03:17:52.050Z,1011.43
2016-07-15T03:18:52.046Z,1011.46
2016-07-15T03:19:52.042Z,1011.45
2016-07-15T03:20:52.052Z,1011.49
2016-07-15T03:21:52.035Z,1011.5
2016-07-15T03:22:52.033Z,1011.48
2016-07-15T03:23:52.032Z,1011.57
2016-07-15T03:24:52.027Z,1011.49
2016-07-15T03:25:52.025Z,1011.51
2016-07-15T03:26:52.021Z,1011.52
2016-07-15T03:27:52.019Z,1011.57
2016-07-15T03:28:52.013Z,1011.57
2016-07-15T03:29:52.011Z,1011.54
2016-07-15T03:30:52.008Z,1011.53
2016-07-15T03:31:52.005Z,1011.53
2016-07-15T03:32:52.000Z,1011.59
2016-07-15T03:33:51.999Z,1011.5
2016-07-15T03:34:51.994Z,1011.53
2016-07-15T03:35:51.991Z,1011.58
2016-07-15T03:36:51.986Z,1011.55
2016-07-15T03:37:51.986Z,1011.53
2016-07-15T03:38:51.983Z,1011.59
2016-07-15T03:39:51.981Z,1011.63
2016-07-15T03:40:51.974Z,1011.62
2016-07-15T03:41:51.972Z,1011.6
2016-07-15T03:42:51.968Z,1011.66
2016-07-15T03:43:51.967Z,1011.62
2016-07-15T03:44:51.964Z,1011.67
2016-07-15T03:45:51.961Z,1011.7
2016-07-15T03:46:51.957Z,1011.7
2016-07-15T03:47:51.952Z,1011.73
2016-07-15T03:48:51.948Z,1011.72
2016-07-15T03:49:51.946Z,1011.74
2016-07-15T03:50:51.946Z,1011.71
2016-07-15T03:51:51.942Z,1011.74
2016-07-15T03:52:51.937Z,1011.75
2016-07-15T03:53:51.934Z,1011.8
2016-07-15T03:54:51.930Z,1011.83
2016-07-15T03:55:51.928Z,1011.81
2016-07-15T03:56:51.926Z,1011.81
2016-07-15T03:57:51.924Z,1011.84
2016-07-15T03:58:51.920Z,1011.82
2016-07-15T03:59:51.916Z,1011.85
2016-07-15T04:00:51.913Z,1011.85
2016-07-15T04:01:51.912Z,1011.85
2016-07-15T04:02:51.907Z,1011.9
2016-07-15T04:03:51.904Z,1011.87
2016-07-15T04:04:51.903Z,1011.89
2016-07-15T04:05:51.900Z,1011.9
2016-07-15T04:06:51.894Z,1011.89
2016-07-15T04:07:51.892Z,1011.94
2016-07-15T04:08:51.889Z,1011.98
2016-07-15T04:09:51.888Z,1011.96
2016-07-15T04:10:51.885Z,1011.94
2016-07-15T04:12:51.880Z,1011.93
2016-07-15T04:13:51.874Z,1011.96
2016-07-15T04:14:51.874Z,1011.92
2016-07-15T04:17:51.913Z,1011.97
2016-07-15T04:18:51.862Z,1011.99
2016-07-15T04:19:51.859Z,1011.98
2016-07-15T04:20:51.853Z,1012.01
2016-07-15T04:21:51.851Z,1011.97
2016-07-15T04:22:51.960Z,1011.97
2016-07-15T04:23:53.040Z,1011.99
2016-07-15T04:24:52.898Z,1012.02
2016-07-15T04:25:52.341Z,1012.01
2016-07-15T04:26:51.838Z,1012.08
2016-07-15T04:27:51.835Z,1012.08
2016-07-15T04:28:51.832Z,1012.06
2016-07-15T04:29:51.831Z,1012.06
2016-07-15T04:30:51.827Z,1012.08
2016-07-15T04:31:51.825Z,1012.09
2016-07-15T04:32:51.822Z,1012.14
2016-07-15T04:33:51.819Z,1012.14
2016-07-15T04:34:51.818Z,1012.14
2016-07-15T04:35:51.815Z,1012.16
2016-07-15T04:36:51.814Z,1012.2
2016-07-15T04:37:51.811Z,1012.2
2016-07-15T04:38:51.807Z,1012.2
2016-07-15T04:39:51.806Z,1012.18
2016-07-15T04:40:51.809Z,1012.18
2016-07-15T04:41:51.802Z,1012.17
2016-07-15T04:42:51.798Z,1012.29
2016-07-15T04:43:51.797Z,1012.28
2016-07-15T04:44:51.792Z,1012.3
2016-07-15T04:45:51.789Z,1012.3
2016-07-15T04:46:51.791Z,1012.34
2016-07-15T04:47:51.786Z,1012.33
2016-07-15T04:48:51.784Z,1012.35
2016-07-15T04:49:51.780Z,1012.37
2016-07-15T04:50:51.780Z,1012.42
2016-07-15T04:51:51.779Z,1012.45
2016-07-15T04:52:51.773Z,1012.49
2016-07-15T04:53:51.771Z,1012.52
2016-07-15T04:54:51.768Z,1012.49
2016-07-15T04:55:51.766Z,1012.54
2016-07-15T04:56:51.765Z,1012.64
2016-07-15T04:57:51.763Z,1012.65
2016-07-15T04:58:51.761Z,1012.52
2016-07-15T04:59:51.758Z,1012.62
2016-07-15T05:00:51.757Z,1012.57
2016-07-15T05:01:51.753Z,1012.62
2016-07-15T05:02:51.754Z,1012.61
2016-07-15T05:03:51.750Z,1012.64
2016-07-15T05:04:51.748Z,1012.65
2016-07-15T05:05:51.746Z,1012.65
2016-07-15T05:06:51.746Z,1012.6
2016-07-15T05:07:51.743Z,1012.6
2016-07-15T05:08:51.740Z,1012.56
2016-07-15T05:09:51.742Z,1012.68
2016-07-15T05:10:51.738Z,1012.72
2016-07-15T05:11:51.738Z,1012.72
2016-07-15T05:12:51.734Z,1012.66
2016-07-15T05:13:51.734Z,1012.65
2016-07-15T05:14:51.731Z,1012.74
2016-07-15T05:15:51.730Z,1012.72
2016-07-15T05:16:51.727Z,1012.77
2016-07-15T05:17:51.729Z,1012.77
2016-07-15T05:18:51.725Z,1012.73
2016-07-15T05:19:51.725Z,1012.78
2016-07-15T05:20:51.722Z,1012.77
2016-07-15T05:21:51.772Z,1012.73
2016-07-15T05:22:51.718Z,1012.74
2016-07-15T05:23:51.718Z,1012.86
2016-07-15T05:24:51.717Z,1012.89
2016-07-15T05:25:51.716Z,1012.93
2016-07-15T05:26:51.711Z,1012.9
2016-07-15T05:27:51.713Z,1012.96
2016-07-15T05:28:51.710Z,1012.98
2016-07-15T05:29:51.706Z,1012.96
2016-07-15T05:30:51.706Z,1012.98
2016-07-15T05:31:51.705Z,1012.93
2016-07-15T05:32:52.105Z,1012.9
2016-07-15T05:33:51.701Z,1012.98
2016-07-15T05:34:51.699Z,1012.96
2016-07-15T05:35:51.698Z,1012.9
2016-07-15T05:36:51.698Z,1013
2016-07-15T05:37:51.696Z,1013.03
2016-07-15T05:38:51.695Z,1013.06
2016-07-15T05:39:51.692Z,1013.05
2016-07-15T05:40:51.692Z,1013.05
2016-07-15T05:41:52.424Z,1013.1
2016-07-15T05:42:51.689Z,1013.1
2016-07-15T05:43:51.836Z,1013.1
2016-07-15T05:44:51.686Z,1013.08
2016-07-15T05:45:52.127Z,1013.14
2016-07-15T05:46:51.683Z,1013.09
2016-07-15T05:47:51.683Z,1013.1
2016-07-15T05:48:51.681Z,1013.11
2016-07-15T05:50:51.678Z,1013.2
2016-07-15T05:51:51.675Z,1013.15
2016-07-15T05:52:51.676Z,1013.15
2016-07-15T05:53:51.674Z,1013.15
2016-07-15T05:54:52.131Z,1013.12
2016-07-15T05:55:51.669Z,1013.11
2016-07-15T05:56:51.671Z,1013.18
2016-07-15T05:57:51.667Z,1013.17
2016-07-15T05:58:51.668Z,1013.12
2016-07-15T05:59:51.666Z,1013.13
2016-07-15T06:00:51.664Z,1013.13
2016-07-15T06:01:51.665Z,1013.18
2016-07-15T06:02:51.660Z,1013.14
2016-07-15T06:03:51.661Z,1013.17
2016-07-15T06:04:51.665Z,1013.2
2016-07-15T06:05:51.657Z,1013.22
2016-07-15T06:06:51.656Z,1013.24
2016-07-15T06:07:51.657Z,1013.33
2016-07-15T06:08:51.653Z,1013.45
2016-07-15T06:09:51.653Z,1013.45
2016-07-15T06:10:51.650Z,1013.46
2016-07-15T06:11:51.649Z,1013.42
2016-07-15T06:12:51.650Z,1013.49
2016-07-15T06:13:51.646Z,1013.42
2016-07-15T06:14:51.644Z,1013.46
2016-07-15T06:15:51.643Z,1013.42
2016-07-15T06:16:51.642Z,1013.51
2016-07-15T06:17:51.640Z,1013.5
2016-07-15T06:18:51.641Z,1013.48
2016-07-15T06:19:51.639Z,1013.48
2016-07-15T06:20:51.638Z,1013.49
2016-07-15T06:21:51.634Z,1013.48
2016-07-15T06:22:51.636Z,1013.52
2016-07-15T06:23:51.632Z,1013.5
2016-07-15T06:24:51.630Z,1013.57
2016-07-15T06:25:51.631Z,1013.61
2016-07-15T06:26:51.627Z,1013.55
2016-07-15T06:27:51.626Z,1013.77
2016-07-15T06:28:51.626Z,1013.72
2016-07-15T06:29:51.624Z,1013.79
2016-07-15T06:30:51.621Z,1013.98
2016-07-15T06:31:51.618Z,1013.99
2016-07-15T06:32:51.619Z,1014.1
2016-07-15T06:33:51.617Z,1014.06
2016-07-15T06:34:51.614Z,1014.08
2016-07-15T06:35:51.614Z,1014.08
2016-07-15T06:36:51.610Z,1014.09
2016-07-15T06:37:51.611Z,1014.11
2016-07-15T06:38:51.615Z,1014.08
2016-07-15T06:39:51.607Z,1014.11
2016-07-15T06:40:51.606Z,1014.11
2016-07-15T06:41:51.607Z,1014.11
2016-07-15T06:42:51.603Z,1014.16
2016-07-15T06:43:51.603Z,1014.27
2016-07-15T06:44:51.603Z,1014.19
2016-07-15T06:45:51.603Z,1014.13
2016-07-15T06:46:51.603Z,1014.12
2016-07-15T06:47:51.603Z,1014.18
2016-07-15T06:48:51.802Z,1014.13
2016-07-15T06:50:51.603Z,1013.95
2016-07-15T06:51:51.604Z,1013.97
2016-07-15T06:52:51.603Z,1013.96
2016-07-15T06:53:51.603Z,1013.87
2016-07-15T06:54:51.605Z,1013.84
2016-07-15T06:55:51.604Z,1013.86
2016-07-15T06:56:51.655Z,1013.81
2016-07-15T06:57:51.604Z,1013.95
2016-07-15T06:58:51.756Z,1014.02
2016-07-15T06:59:51.608Z,1014
2016-07-15T07:00:51.606Z,1014.06
2016-07-15T07:01:52.418Z,1014.05
2016-07-15T07:02:51.609Z,1013.96
2016-07-15T07:03:51.610Z,1014.16
2016-07-15T07:04:51.859Z,1014.08
2016-07-15T07:05:51.609Z,1014.21
2016-07-15T07:06:51.608Z,1014.27
2016-07-15T07:07:51.611Z,1014.32
2016-07-15T07:08:51.608Z,1014.35
2016-07-15T07:09:51.609Z,1014.28
2016-07-15T07:10:51.612Z,1014.35
2016-07-15T07:11:51.609Z,1014.41
2016-07-15T07:12:51.610Z,1014.26
2016-07-15T07:13:52.239Z,1014.28
2016-07-15T07:14:51.611Z,1014.27
2016-07-15T07:15:51.610Z,1014.17
2016-07-15T07:16:51.610Z,1014.18
2016-07-15T07:17:51.612Z,1014.33
2016-07-15T07:18:51.615Z,1014.32
2016-07-15T07:19:51.614Z,1014.38
2016-07-15T07:20:51.612Z,1014.35
2016-07-15T07:21:51.716Z,1014.54
2016-07-15T07:22:51.620Z,1014.39
2016-07-15T07:23:51.616Z,1014.37
2016-07-15T07:24:51.616Z,1014.32
2016-07-15T07:25:51.616Z,1014.51
2016-07-15T07:26:51.619Z,1014.52
2016-07-15T07:27:51.618Z,1014.55
2016-07-15T07:28:51.619Z,1014.65
2016-07-15T07:29:51.621Z,1014.66
2016-07-15T07:30:51.623Z,1014.8
2016-07-15T07:31:51.623Z,1014.86
2016-07-15T07:32:51.627Z,1014.74
2016-07-15T07:33:51.628Z,1014.79
2016-07-15T07:34:51.627Z,1014.79
2016-07-15T07:35:51.632Z,1014.64
2016-07-15T07:36:51.632Z,1014.49
2016-07-15T07:37:51.634Z,1014.67
2016-07-15T07:38:51.637Z,1014.83
2016-07-15T07:39:51.640Z,1014.83
2016-07-15T07:40:51.643Z,1014.82
2016-07-15T07:41:51.644Z,1014.72
2016-07-15T07:42:51.649Z,1014.6
2016-07-15T07:43:51.651Z,1014.55
2016-07-15T07:44:51.653Z,1014.57
2016-07-15T07:45:51.658Z,1014.57
2016-07-15T07:46:51.660Z,1014.73
2016-07-15T07:47:51.663Z,1014.76
2016-07-15T07:48:51.667Z,1014.91
2016-07-15T07:49:51.670Z,1014.83
2016-07-15T07:50:51.676Z,1014.81
2016-07-15T07:51:51.678Z,1014.82
2016-07-15T07:52:51.681Z,1014.81
2016-07-15T07:53:51.684Z,1014.92
2016-07-15T07:54:51.687Z,1014.93
2016-07-15T07:55:51.689Z,1014.94
2016-07-15T07:56:51.692Z,1014.87
2016-07-15T07:57:51.702Z,1014.93
2016-07-15T07:58:51.702Z,1014.88
2016-07-15T07:59:51.706Z,1014.98
2016-07-15T08:00:51.707Z,1014.97
2016-07-15T08:01:51.711Z,1015
2016-07-15T08:02:51.717Z,1014.99
2016-07-15T08:03:51.721Z,1015.01
2016-07-15T08:04:51.723Z,1015.08
2016-07-15T08:05:51.727Z,1015.07
2016-07-15T08:06:51.730Z,1015.15
2016-07-15T08:07:51.735Z,1015.19
2016-07-15T08:08:51.740Z,1015.32
2016-07-15T08:09:51.745Z,1015.3
2016-07-15T08:10:51.747Z,1015.27
2016-07-15T08:11:51.753Z,1015.3
2016-07-15T08:12:51.756Z,1015.25
2016-07-15T08:13:51.760Z,1015.67
2016-07-15T08:14:51.765Z,1015.47
2016-07-15T08:15:52.623Z,1016.34
2016-07-15T08:16:51.777Z,1016.12
2016-07-15T08:17:51.782Z,1015.18
2016-07-15T08:18:52.033Z,1015.6
2016-07-15T08:19:52.398Z,1016.73
2016-07-15T08:20:51.799Z,1016.41
2016-07-15T08:21:52.307Z,1015.24
2016-07-15T08:22:51.903Z,1015.23
2016-07-15T08:23:51.819Z,1015.34
2016-07-15T08:24:51.970Z,1015.28
2016-07-15T08:25:51.834Z,1015.37
2016-07-15T08:26:51.842Z,1015.42
2016-07-15T08:27:51.850Z,1015.71
2016-07-15T08:28:51.856Z,1015.32
2016-07-15T08:29:51.862Z,1015.24
2016-07-15T08:30:51.871Z,1015.09
2016-07-15T08:31:51.878Z,1015.4
2016-07-15T08:32:52.389Z,1015.53
2016-07-15T08:33:51.887Z,1015.34
2016-07-15T08:34:52.012Z,1015.45
2016-07-15T08:35:51.903Z,1015.34
2016-07-15T08:36:51.908Z,1015.4
2016-07-15T08:37:51.912Z,1015.09
2016-07-15T08:38:51.919Z,1015.22
2016-07-15T08:39:51.924Z,1015.09
2016-07-15T08:40:51.929Z,1014.96
2016-07-15T08:41:51.935Z,1015.23
2016-07-15T08:42:51.943Z,1015.14
2016-07-15T08:43:51.945Z,1015.27
2016-07-15T08:44:51.960Z,1015.24
2016-07-15T08:45:51.961Z,1015.19
2016-07-15T08:46:51.959Z,1015.23
2016-07-15T08:47:51.966Z,1015.07
2016-07-15T08:48:51.969Z,1015.12
2016-07-15T08:49:51.975Z,1015.34
2016-07-15T08:50:51.976Z,1015.4
2016-07-15T08:51:51.982Z,1015.42
2016-07-15T08:52:51.984Z,1015.2
2016-07-15T08:53:51.990Z,1015.17
2016-07-15T08:54:51.992Z,1015.13
2016-07-15T08:55:51.997Z,1015.14
2016-07-15T08:56:51.998Z,1015.23
2016-07-15T08:57:52.004Z,1015.33
2016-07-15T08:58:52.004Z,1015.27
2016-07-15T08:59:52.008Z,1015.22
2016-07-15T09:00:52.012Z,1015.16
2016-07-15T09:01:52.014Z,1015.27
2016-07-15T09:02:52.015Z,1015.32
2016-07-15T09:03:52.018Z,1015.31
2016-07-15T09:04:52.021Z,1015.35
2016-07-15T09:05:52.024Z,1015.29
2016-07-15T09:06:52.024Z,1015.38
2016-07-15T09:07:52.027Z,1015.46
2016-07-15T09:08:52.031Z,1015.5
2016-07-15T09:09:52.033Z,1015.44
2016-07-15T09:10:52.034Z,1015.54
2016-07-15T09:11:52.034Z,1015.59
2016-07-15T09:12:52.036Z,1015.57
2016-07-15T09:13:52.040Z,1015.61
2016-07-15T09:14:52.043Z,1015.6
2016-07-15T09:15:52.043Z,1015.52
2016-07-15T09:16:52.045Z,1015.48
2016-07-15T09:17:52.051Z,1015.35
2016-07-15T09:18:52.048Z,1015.68
2016-07-15T09:19:52.049Z,1015.86
2016-07-15T09:20:52.054Z,1015.92
2016-07-15T09:21:52.056Z,1015.94
2016-07-15T09:22:52.058Z,1015.8
2016-07-15T09:23:52.060Z,1015.48
2016-07-15T09:24:52.060Z,1015.49
2016-07-15T09:25:52.564Z,1015.48
2016-07-15T09:26:52.967Z,1015.6
2016-07-15T09:27:52.069Z,1015.55
2016-07-15T09:28:52.070Z,1015.41
2016-07-15T09:29:52.073Z,1015.43
2016-07-15T09:30:52.073Z,1015.51
2016-07-15T09:31:52.078Z,1015.68
2016-07-15T09:32:52.078Z,1015.71
2016-07-15T09:33:52.083Z,1015.9
2016-07-15T09:35:52.687Z,1016.04
2016-07-15T09:36:52.561Z,1015.61
2016-07-15T09:37:52.394Z,1015.69
2016-07-15T09:38:52.695Z,1015.79
2016-07-15T09:39:52.777Z,1015.8
2016-07-15T09:40:52.103Z,1015.71
2016-07-15T09:41:52.104Z,1015.55
2016-07-15T09:42:52.109Z,1015.7
2016-07-15T09:43:52.110Z,1015.71
2016-07-15T09:45:52.118Z,1015.64
2016-07-15T09:46:52.120Z,1015.64
2016-07-15T09:47:52.123Z,1015.56
2016-07-15T09:48:53.061Z,1015.61
2016-07-15T09:49:52.131Z,1015.55
2016-07-15T09:50:52.685Z,1015.48
2016-07-15T09:51:52.138Z,1015.56
2016-07-15T09:52:52.138Z,1015.47
2016-07-15T09:53:52.142Z,1015.58
2016-07-15T09:54:52.145Z,1015.58
2016-07-15T09:55:52.147Z,1015.6
2016-07-15T09:56:52.150Z,1015.56
2016-07-15T09:57:52.152Z,1015.66
2016-07-15T09:58:52.154Z,1015.54
2016-07-15T09:59:52.158Z,1015.46
2016-07-15T10:00:52.161Z,1015.58
2016-07-15T10:01:52.166Z,1015.64
2016-07-15T10:02:52.164Z,1015.57
2016-07-15T10:03:52.164Z,1015.54
2016-07-15T10:04:52.167Z,1015.58
2016-07-15T10:05:52.171Z,1015.61
2016-07-15T10:06:52.170Z,1015.73
2016-07-15T10:07:52.172Z,1015.62
2016-07-15T10:08:52.175Z,1015.61
2016-07-15T10:09:52.177Z,1015.67
2016-07-15T10:10:52.179Z,1015.76
2016-07-15T10:11:52.177Z,1015.75
2016-07-15T10:12:52.180Z,1015.76
2016-07-15T10:13:52.182Z,1015.75
2016-07-15T10:14:52.180Z,1015.73
2016-07-15T10:15:52.182Z,1015.88
2016-07-15T10:16:52.185Z,1015.89
2016-07-15T10:17:52.186Z,1015.97
2016-07-15T10:18:52.187Z,1015.97
2016-07-15T10:19:52.189Z,1016.04
2016-07-15T10:20:52.187Z,1016.13
2016-07-15T10:21:52.189Z,1016.24
2016-07-15T10:22:52.190Z,1016.19
2016-07-15T10:23:52.189Z,1016.23
2016-07-15T10:24:52.192Z,1016.19
2016-07-15T10:25:52.190Z,1016.23
2016-07-15T10:26:52.192Z,1016.32
2016-07-15T10:27:52.192Z,1016.26
2016-07-15T10:28:52.199Z,1016.18
2016-07-15T10:29:52.195Z,1016.07
2016-07-15T10:30:52.198Z,1015.95
2016-07-15T10:31:52.199Z,1015.91
2016-07-15T10:32:52.204Z,1015.91
2016-07-15T10:33:52.201Z,1015.9
2016-07-15T10:34:52.202Z,1015.89
2016-07-15T10:35:52.204Z,1015.88
2016-07-15T10:36:52.205Z,1015.93
2016-07-15T10:37:52.206Z,1015.93
2016-07-15T10:38:52.208Z,1015.94
2016-07-15T10:39:52.212Z,1015.9
2016-07-15T10:40:52.209Z,1015.91
2016-07-15T10:41:52.214Z,1015.91
2016-07-15T10:42:52.214Z,1015.88
2016-07-15T10:43:52.217Z,1015.88
2016-07-15T10:44:52.222Z,1015.92
2016-07-15T10:46:52.217Z,1015.96
2016-07-15T10:47:52.217Z,1016.04
2016-07-15T10:48:52.219Z,1016.06
2016-07-15T10:49:52.221Z,1016.09
2016-07-15T10:50:52.221Z,1016.09
2016-07-15T10:51:52.220Z,1016.08
2016-07-15T10:52:52.225Z,1016.14
2016-07-15T10:53:52.222Z,1016.11
2016-07-15T10:54:54.203Z,1016.18
2016-07-15T10:55:52.972Z,1016.15
2016-07-15T10:56:52.224Z,1016.17
2016-07-15T10:57:52.232Z,1016.14
2016-07-15T10:58:52.226Z,1016.14
2016-07-15T10:59:52.435Z,1016.18
2016-07-15T11:00:52.226Z,1016.21
2016-07-15T11:01:52.229Z,1016.22
2016-07-15T11:02:52.227Z,1016.25
2016-07-15T11:03:52.229Z,1016.29
2016-07-15T11:04:52.229Z,1016.31
2016-07-15T11:05:53.522Z,1016.38
2016-07-15T11:06:52.229Z,1016.47
2016-07-15T11:07:52.230Z,1016.52
2016-07-15T11:08:52.229Z,1016.56
2016-07-15T11:09:52.228Z,1016.61
2016-07-15T11:10:52.239Z,1016.71
2016-07-15T11:11:52.232Z,1016.78
2016-07-15T11:12:52.234Z,1016.81
2016-07-15T11:13:52.231Z,1016.83
2016-07-15T11:14:52.234Z,1016.9
2016-07-15T11:15:52.233Z,1016.96
2016-07-15T11:16:52.235Z,1016.98
2016-07-15T11:17:52.233Z,1017.1
2016-07-15T11:18:52.236Z,1017.15
2016-07-15T11:19:52.239Z,1017.18
2016-07-15T11:20:52.241Z,1017.21
2016-07-15T11:21:52.241Z,1017.18
2016-07-15T11:22:52.243Z,1017.11
2016-07-15T11:23:52.248Z,1017.06
2016-07-15T11:24:52.251Z,1016.73
2016-07-15T11:25:52.254Z,1016.68
2016-07-15T11:26:52.258Z,1016.6
2016-07-15T11:27:52.260Z,1016.53
2016-07-15T11:28:52.270Z,1016.58
2016-07-15T11:29:52.269Z,1016.46
2016-07-15T11:30:52.271Z,1016.28
2016-07-15T11:31:52.275Z,1016.15
2016-07-15T11:32:52.282Z,1016.15
2016-07-15T11:33:52.284Z,1016.23
2016-07-15T11:34:52.288Z,1016.35
2016-07-15T11:35:52.292Z,1016.27
2016-07-15T11:36:52.296Z,1016.26
2016-07-15T11:37:52.304Z,1016.32
2016-07-15T11:38:52.306Z,1016.43
2016-07-15T11:39:52.309Z,1016.6
2016-07-15T11:40:52.315Z,1016.55
2016-07-15T11:41:52.318Z,1016.45
2016-07-15T11:42:52.321Z,1016.58
2016-07-15T11:43:52.326Z,1016.43
2016-07-15T11:44:52.327Z,1016.38
2016-07-15T11:45:52.333Z,1016.25
2016-07-15T11:46:52.337Z,1016.31
2016-07-15T11:47:52.337Z,1016.28
2016-07-15T11:48:52.342Z,1016.25
2016-07-15T11:49:52.347Z,1016.33
2016-07-15T11:50:52.350Z,1016.27
2016-07-15T11:51:52.351Z,1016.26
2016-07-15T11:52:52.355Z,1016.29
2016-07-15T11:53:52.356Z,1016.31
2016-07-15T11:54:52.361Z,1016.33
2016-07-15T11:55:52.365Z,1016.42
2016-07-15T11:56:52.365Z,1016.4
2016-07-15T11:57:52.368Z,1016.41
2016-07-15T11:58:52.372Z,1016.42
2016-07-15T11:59:52.374Z,1016.43
2016-07-15T12:00:52.373Z,1016.47
2016-07-15T12:02:52.378Z,1016.53
2016-07-15T12:03:52.379Z,1016.61
2016-07-15T12:04:52.380Z,1016.59
2016-07-15T12:05:52.884Z,1016.6
2016-07-15T12:06:52.384Z,1016.64
2016-07-15T12:07:52.384Z,1016.61
2016-07-15T12:08:52.385Z,1016.68
2016-07-15T12:09:52.389Z,1016.66
2016-07-15T12:11:52.388Z,1016.69
2016-07-15T12:12:53.157Z,1016.68
2016-07-15T12:13:53.605Z,1016.69
2016-07-15T12:14:52.393Z,1016.74
2016-07-15T12:15:52.941Z,1016.72
2016-07-15T12:16:52.392Z,1016.76
2016-07-15T12:17:53.809Z,1016.71
2016-07-15T12:18:52.394Z,1016.72
2016-07-15T12:19:52.392Z,1016.77